createdAt,value
2022-11-29T00:00:20.593Z,11.45
2022-11-29T00:01:25.346Z,10.20
2022-11-29T00:02:28.245Z,10.68
2022-11-29T00:03:30.768Z,11.18
2022-11-29T00:04:35.110Z,11.20
2022-11-29T00:05:37.032Z,11.48
2022-11-29T00:06:39.914Z,9.68
2022-11-29T00:07:41.603Z,10.98
2022-11-29T00:08:44.703Z,14.30
2022-11-29T00:09:46.431Z,13.23
2022-11-29T00:10:49.234Z,12.50
2022-11-29T00:12:09.554Z,11.75
2022-11-29T00:13:11.266Z,16.27
2022-11-29T00:14:16.104Z,12.95
2022-11-29T00:15:18.880Z,11.35
2022-11-29T00:16:20.607Z,8.85
2022-11-29T00:17:23.330Z,9.85
2022-11-29T00:18:25.017Z,13.48
2022-11-29T00:19:27.726Z,11.35
2022-11-29T00:20:31.454Z,9.70
2022-11-29T00:21:34.308Z,10.13
2022-11-29T00:22:37.104Z,13.52
2022-11-29T00:23:38.772Z,9.98
2022-11-29T00:24:43.008Z,10.48
2022-11-29T00:25:44.898Z,11.60
2022-11-29T00:26:47.992Z,10.40
2022-11-29T00:27:51.326Z,9.40
2022-11-29T00:28:54.096Z,12.02
2022-11-29T00:29:55.779Z,12.43
2022-11-29T00:30:58.535Z,10.07
2022-11-29T00:32:01.602Z,11.30
2022-11-29T00:33:04.515Z,11.25
2022-11-29T00:34:07.963Z,11.30
2022-11-29T00:35:10.014Z,11.75
2022-11-29T00:36:14.499Z,10.73
2022-11-29T00:37:16.170Z,12.57
2022-11-29T00:38:18.877Z,11.25
2022-11-29T00:39:20.562Z,11.18
2022-11-29T00:40:23.236Z,12.27
2022-11-29T00:41:25.280Z,12.13
2022-11-29T00:42:27.991Z,11.38
2022-11-29T00:43:29.622Z,11.20
2022-11-29T00:44:32.370Z,11.48
2022-11-29T00:45:34.095Z,10.98
2022-11-29T00:46:37.157Z,9.85
2022-11-29T00:47:38.815Z,10.38
2022-11-29T00:48:41.519Z,9.32
2022-11-29T00:49:44.201Z,10.20
2022-11-29T00:50:45.916Z,10.25
2022-11-29T00:51:50.057Z,12.18
2022-11-29T00:52:51.709Z,10.75
2022-11-29T00:53:54.396Z,8.77
2022-11-29T00:54:56.041Z,14.10
2022-11-29T00:55:58.976Z,10.57
2022-11-29T00:57:00.752Z,13.13
2022-11-29T00:58:03.581Z,13.95
2022-11-29T00:59:05.309Z,10.82
2022-11-29T01:00:09.214Z,12.27
2022-11-29T01:01:11.724Z,11.77
2022-11-29T01:02:14.545Z,11.38
2022-11-29T01:03:16.882Z,12.30
2022-11-29T01:04:20.103Z,13.00
2022-11-29T01:05:21.826Z,10.18
2022-11-29T01:06:24.571Z,13.50
2022-11-29T01:07:27.731Z,9.63
2022-11-29T01:08:30.419Z,14.40
2022-11-29T01:09:32.076Z,11.52
2022-11-29T01:10:34.735Z,9.65
2022-11-29T01:11:36.478Z,11.52
2022-11-29T01:12:40.042Z,12.00
2022-11-29T01:13:42.452Z,11.52
2022-11-29T01:14:45.435Z,10.90
2022-11-29T01:15:55.514Z,10.50
2022-11-29T01:16:58.286Z,9.80
2022-11-29T01:17:59.998Z,12.27
2022-11-29T01:19:02.843Z,14.18
2022-11-29T01:20:07.207Z,10.45
2022-11-29T01:21:12.027Z,9.63
2022-11-29T01:22:13.671Z,10.18
2022-11-29T01:23:17.697Z,12.68
2022-11-29T01:24:19.445Z,9.80
2022-11-29T01:25:22.248Z,12.25
2022-11-29T01:26:25.724Z,14.30
2022-11-29T01:27:28.381Z,13.35
2022-11-29T01:28:30.185Z,11.10
2022-11-29T01:29:32.896Z,13.27
2022-11-29T01:30:34.622Z,11.40
2022-11-29T01:31:37.295Z,11.15
2022-11-29T01:32:39.080Z,10.35
2022-11-29T01:33:42.312Z,11.80
2022-11-29T01:34:44.359Z,16.73
2022-11-29T01:35:51.066Z,16.25
2022-11-29T01:36:53.808Z,12.00
2022-11-29T01:37:55.500Z,11.88
2022-11-29T01:39:02.250Z,11.05
2022-11-29T01:40:05.294Z,10.35
2022-11-29T01:41:16.952Z,16.58
2022-11-29T01:42:18.712Z,9.48
2022-11-29T01:43:21.588Z,10.52
2022-11-29T01:45:01.131Z,12.63
2022-11-29T01:46:03.865Z,11.70
2022-11-29T01:47:05.956Z,9.65
2022-11-29T01:48:09.174Z,9.80
2022-11-29T01:49:13.537Z,9.13
2022-11-29T01:50:16.304Z,10.90
2022-11-29T01:51:18.461Z,10.25
2022-11-29T01:52:24.103Z,10.10
2022-11-29T01:53:26.149Z,13.90
2022-11-29T01:54:31.799Z,11.30
2022-11-29T01:55:33.703Z,9.05
2022-11-29T01:56:37.403Z,10.05
2022-11-29T01:57:40.713Z,10.07
2022-11-29T01:58:44.073Z,10.30
2022-11-29T01:59:48.258Z,9.38
2022-11-29T02:00:51.047Z,11.52
2022-11-29T02:01:53.038Z,10.88
2022-11-29T02:02:59.557Z,10.68
2022-11-29T02:04:01.494Z,12.10
2022-11-29T02:05:06.123Z,9.57
2022-11-29T02:06:08.103Z,9.70
2022-11-29T02:07:10.797Z,9.88
2022-11-29T02:08:14.771Z,11.20
2022-11-29T02:09:19.599Z,9.43
2022-11-29T02:10:28.391Z,8.80
2022-11-29T02:11:45.468Z,11.43
2022-11-29T02:12:56.389Z,9.75
2022-11-29T02:14:09.410Z,9.65
2022-11-29T02:15:22.539Z,9.02
2022-11-29T02:16:29.597Z,11.38
2022-11-29T02:17:39.570Z,14.77
2022-11-29T02:18:51.572Z,10.23
2022-11-29T02:20:26.116Z,8.80
2022-11-29T02:21:34.540Z,9.40
2022-11-29T02:22:38.773Z,9.90
2022-11-29T02:23:57.397Z,9.75
2022-11-29T02:25:12.250Z,13.30
2022-11-29T02:26:24.454Z,10.13
2022-11-29T02:27:43.590Z,9.95
2022-11-29T02:29:09.724Z,10.77
2022-11-29T02:30:20.113Z,9.52
2022-11-29T02:31:38.318Z,11.55
2022-11-29T02:33:19.671Z,9.02
2022-11-29T02:34:48.266Z,9.98
2022-11-29T02:36:12.678Z,9.90
2022-11-29T02:37:28.228Z,10.70
2022-11-29T02:38:47.871Z,10.07
2022-11-29T02:40:01.955Z,9.75
2022-11-29T02:41:28.008Z,9.90
2022-11-29T02:42:56.068Z,10.02
2022-11-29T02:44:12.629Z,9.63
2022-11-29T02:45:24.051Z,11.82
2022-11-29T02:46:51.649Z,12.00
2022-11-29T02:48:01.125Z,8.93
2022-11-29T02:49:09.691Z,9.60
2022-11-29T02:50:21.278Z,8.93
2022-11-29T02:51:27.995Z,11.88
2022-11-29T02:52:38.373Z,8.85
2022-11-29T02:53:45.119Z,11.27
2022-11-29T02:54:53.672Z,10.40
2022-11-29T02:56:01.784Z,11.25
2022-11-29T02:57:10.216Z,9.05
2022-11-29T02:58:18.150Z,11.10
2022-11-29T02:59:33.657Z,9.23
2022-11-29T03:00:36.083Z,12.75
2022-11-29T03:01:45.737Z,9.65
2022-11-29T03:02:50.020Z,9.80
2022-11-29T03:03:57.374Z,8.85
2022-11-29T03:05:03.834Z,9.57
2022-11-29T03:06:16.397Z,10.63
2022-11-29T03:07:26.685Z,10.95
2022-11-29T03:08:33.908Z,12.57
2022-11-29T03:09:40.212Z,8.77
2022-11-29T03:10:51.644Z,10.15
2022-11-29T03:11:58.991Z,11.70
2022-11-29T03:13:04.219Z,10.73
2022-11-29T03:14:14.872Z,11.13
2022-11-29T03:15:26.288Z,12.02
2022-11-29T03:16:37.091Z,10.10
2022-11-29T03:17:53.174Z,10.80
2022-11-29T03:19:05.462Z,11.90
2022-11-29T03:20:20.920Z,9.40
2022-11-29T03:21:32.077Z,12.88
2022-11-29T03:22:44.463Z,9.93
2022-11-29T03:23:48.738Z,13.35
2022-11-29T03:25:02.289Z,14.63
2022-11-29T03:26:09.529Z,11.60
2022-11-29T03:27:14.390Z,12.73
2022-11-29T03:28:19.646Z,10.65
2022-11-29T03:29:27.508Z,13.30
2022-11-29T03:30:29.756Z,10.88
2022-11-29T03:31:36.114Z,11.60
2022-11-29T03:32:45.168Z,11.75
2022-11-29T03:33:52.872Z,10.27
2022-11-29T03:35:00.086Z,17.50
2022-11-29T03:36:07.055Z,13.80
2022-11-29T03:37:15.406Z,11.10
2022-11-29T03:38:23.051Z,12.02
2022-11-29T03:39:30.291Z,9.38
2022-11-29T03:40:40.199Z,9.55
2022-11-29T03:41:47.083Z,8.02
2022-11-29T03:42:53.423Z,13.05
2022-11-29T03:43:58.004Z,11.25
2022-11-29T03:45:05.145Z,10.13
2022-11-29T03:46:10.255Z,11.55
2022-11-29T03:47:15.574Z,10.20
2022-11-29T03:48:21.127Z,11.50
2022-11-29T03:49:27.250Z,10.63
2022-11-29T03:50:33.556Z,8.90
2022-11-29T03:51:48.372Z,9.52
2022-11-29T03:52:54.258Z,13.88
2022-11-29T03:53:59.451Z,10.20
2022-11-29T03:55:12.418Z,10.38
2022-11-29T03:56:29.652Z,10.30
2022-11-29T03:57:35.703Z,9.88
2022-11-29T03:58:47.427Z,10.25
2022-11-29T03:59:55.696Z,7.63
2022-11-29T04:01:26.832Z,9.75
2022-11-29T04:02:40.995Z,9.18
2022-11-29T04:04:02.330Z,9.45
2022-11-29T04:05:42.773Z,7.90
2022-11-29T04:06:55.958Z,8.93
2022-11-29T04:08:11.961Z,11.93
2022-11-29T04:09:25.836Z,8.75
2022-11-29T04:10:41.388Z,9.70
2022-11-29T04:12:06.387Z,8.68
2022-11-29T04:13:37.007Z,7.32
2022-11-29T04:14:58.011Z,11.85
2022-11-29T04:16:28.466Z,13.50
2022-11-29T04:17:45.771Z,9.85
2022-11-29T04:19:06.895Z,11.23
2022-11-29T04:20:50.815Z,10.85
2022-11-29T04:22:10.748Z,11.63
2022-11-29T04:23:33.143Z,9.13
2022-11-29T04:25:09.054Z,9.68
2022-11-29T04:26:38.484Z,8.80
2022-11-29T04:27:49.755Z,10.43
2022-11-29T04:29:11.230Z,9.63
2022-11-29T04:30:17.732Z,11.90
2022-11-29T04:31:29.194Z,12.00
2022-11-29T04:32:51.663Z,9.02
2022-11-29T04:34:20.657Z,8.45
2022-11-29T04:35:32.983Z,8.38
2022-11-29T04:36:51.513Z,7.38
2022-11-29T04:38:29.656Z,10.23
2022-11-29T04:39:50.431Z,11.15
2022-11-29T04:41:09.491Z,9.57
2022-11-29T04:42:29.302Z,10.57
2022-11-29T04:43:52.517Z,8.43
2022-11-29T04:45:19.794Z,9.63
2022-11-29T04:46:36.735Z,8.45
2022-11-29T04:47:49.421Z,9.52
2022-11-29T04:49:16.524Z,13.57
2022-11-29T04:50:28.931Z,10.40
2022-11-29T04:51:50.161Z,14.38
2022-11-29T04:53:11.615Z,11.02
2022-11-29T04:54:21.573Z,12.68
2022-11-29T04:55:35.233Z,9.23
2022-11-29T04:56:41.229Z,13.43
2022-11-29T04:57:46.560Z,8.05
2022-11-29T04:58:54.374Z,7.97
2022-11-29T05:00:00.231Z,11.52
2022-11-29T05:01:08.438Z,8.25
2022-11-29T05:02:17.676Z,11.93
2022-11-29T05:03:26.824Z,10.00
2022-11-29T05:04:33.159Z,8.85
2022-11-29T05:05:41.304Z,8.85
2022-11-29T05:06:49.326Z,8.48
2022-11-29T05:07:58.183Z,8.23
2022-11-29T05:09:07.719Z,9.68
2022-11-29T05:10:20.724Z,10.68
2022-11-29T05:11:33.942Z,11.73
2022-11-29T05:12:40.770Z,10.55
2022-11-29T05:13:48.513Z,9.00
2022-11-29T05:15:01.951Z,9.68
2022-11-29T05:16:24.437Z,9.93
2022-11-29T05:17:33.284Z,7.65
2022-11-29T05:18:55.603Z,9.70
2022-11-29T05:20:05.797Z,8.68
2022-11-29T05:21:14.096Z,13.13
2022-11-29T05:22:28.419Z,8.80
2022-11-29T05:23:38.355Z,12.20
2022-11-29T05:24:52.626Z,6.50
2022-11-29T05:26:01.088Z,7.75
2022-11-29T05:27:10.878Z,10.45
2022-11-29T05:28:17.956Z,10.90
2022-11-29T05:29:24.772Z,9.70
2022-11-29T05:30:33.809Z,13.10
2022-11-29T05:31:55.843Z,9.50
2022-11-29T05:33:04.829Z,10.23
2022-11-29T05:34:22.169Z,9.88
2022-11-29T05:35:41.183Z,10.80
2022-11-29T05:36:50.538Z,8.60
2022-11-29T05:37:54.744Z,8.20
2022-11-29T05:39:08.780Z,8.80
2022-11-29T05:40:44.817Z,10.68
2022-11-29T05:41:57.999Z,12.20
2022-11-29T05:43:13.914Z,10.23
2022-11-29T05:44:20.867Z,9.85
2022-11-29T05:45:25.552Z,11.23
2022-11-29T05:46:32.339Z,9.73
2022-11-29T05:47:37.814Z,7.80
2022-11-29T05:48:46.696Z,8.05
2022-11-29T05:49:54.256Z,8.13
2022-11-29T05:51:07.052Z,10.13
2022-11-29T05:52:25.448Z,8.40
2022-11-29T05:53:30.449Z,8.35
2022-11-29T05:54:36.151Z,10.55
2022-11-29T05:55:43.195Z,9.55
2022-11-29T05:56:51.022Z,11.02
2022-11-29T05:57:57.076Z,10.18
2022-11-29T05:59:05.191Z,13.80
2022-11-29T06:00:11.196Z,12.38
2022-11-29T06:01:18.905Z,11.07
2022-11-29T06:02:29.989Z,11.40
2022-11-29T06:03:36.321Z,13.13
2022-11-29T06:04:51.099Z,12.80
2022-11-29T06:05:57.381Z,9.90
2022-11-29T06:07:03.779Z,12.90
2022-11-29T06:08:11.890Z,12.45
2022-11-29T06:09:17.670Z,12.77
2022-11-29T06:10:22.860Z,14.18
2022-11-29T06:11:27.390Z,18.25
2022-11-29T06:12:34.932Z,11.63
2022-11-29T06:13:50.993Z,14.68
2022-11-29T06:15:25.554Z,18.13
2022-11-29T06:16:43.933Z,12.45
2022-11-29T06:18:03.690Z,16.35
2022-11-29T06:19:23.435Z,16.48
2022-11-29T06:20:35.166Z,14.52
2022-11-29T06:21:40.874Z,17.33
2022-11-29T06:22:54.090Z,15.68
2022-11-29T06:24:25.507Z,17.85
2022-11-29T06:25:39.491Z,14.77
2022-11-29T06:27:02.228Z,15.45
2022-11-29T06:28:22.656Z,14.95
2022-11-29T06:29:30.139Z,17.83
2022-11-29T06:30:42.063Z,15.30
2022-11-29T06:31:47.011Z,14.82
2022-11-29T06:32:54.381Z,17.30
2022-11-29T06:34:00.516Z,18.63
2022-11-29T06:35:05.353Z,19.10
2022-11-29T06:36:14.597Z,16.63
2022-11-29T06:37:22.017Z,15.90
2022-11-29T06:38:26.187Z,14.63
2022-11-29T06:39:29.286Z,17.55
2022-11-29T06:40:31.524Z,14.95
2022-11-29T06:41:34.758Z,17.42
2022-11-29T06:42:36.426Z,15.45
2022-11-29T06:43:39.583Z,17.65
2022-11-29T06:44:43.180Z,13.50
2022-11-29T06:45:49.299Z,18.98
2022-11-29T06:46:57.870Z,14.82
2022-11-29T06:48:03.448Z,14.77
2022-11-29T06:49:10.537Z,16.38
2022-11-29T06:50:29.220Z,14.13
2022-11-29T06:51:34.274Z,13.73
2022-11-29T06:52:42.668Z,12.55
2022-11-29T06:53:50.546Z,14.27
2022-11-29T06:55:07.780Z,12.75
2022-11-29T06:56:17.937Z,11.85
2022-11-29T06:57:23.378Z,14.63
2022-11-29T06:58:44.520Z,15.00
2022-11-29T06:59:57.264Z,14.77
2022-11-29T07:01:06.437Z,16.70
2022-11-29T07:02:25.645Z,14.70
2022-11-29T07:03:37.973Z,14.50
2022-11-29T07:05:00.617Z,15.82
2022-11-29T07:06:08.403Z,14.07
2022-11-29T07:07:15.657Z,13.68
2022-11-29T07:08:20.446Z,14.18
2022-11-29T07:09:26.271Z,12.65
2022-11-29T07:10:30.407Z,17.23
2022-11-29T07:11:34.105Z,14.80
2022-11-29T07:12:36.331Z,11.07
2022-11-29T07:13:39.875Z,16.25
2022-11-29T07:14:42.304Z,12.57
2022-11-29T07:15:51.695Z,12.18
2022-11-29T07:17:02.827Z,14.27
2022-11-29T07:18:18.295Z,14.00
2022-11-29T07:19:28.271Z,12.55
2022-11-29T07:20:34.776Z,13.82
2022-11-29T07:21:47.252Z,15.60
2022-11-29T07:22:58.579Z,14.57
2022-11-29T07:24:08.767Z,16.65
2022-11-29T07:25:23.228Z,16.13
2022-11-29T07:26:31.219Z,13.23
2022-11-29T07:27:39.592Z,14.27
2022-11-29T07:28:50.472Z,13.50
2022-11-29T07:30:05.149Z,10.43
2022-11-29T07:31:11.687Z,12.43
2022-11-29T07:32:21.678Z,14.25
2022-11-29T07:33:30.441Z,14.77
2022-11-29T07:34:38.200Z,14.60
2022-11-29T07:35:47.144Z,12.57
2022-11-29T07:36:55.319Z,14.75
2022-11-29T07:38:04.641Z,13.90
2022-11-29T07:39:19.161Z,12.88
2022-11-29T07:40:26.521Z,12.40
2022-11-29T07:41:35.613Z,13.70
2022-11-29T07:42:45.321Z,12.80
2022-11-29T07:43:52.351Z,15.32
2022-11-29T07:45:01.925Z,15.13
2022-11-29T07:46:03.813Z,12.35
2022-11-29T07:47:06.571Z,14.23
2022-11-29T07:48:11.067Z,14.55
2022-11-29T07:49:13.771Z,12.43
2022-11-29T07:50:17.017Z,14.13
2022-11-29T07:51:18.699Z,14.55
2022-11-29T07:52:21.564Z,13.52
2022-11-29T07:53:24.927Z,15.02
2022-11-29T07:54:27.713Z,14.52
2022-11-29T07:55:29.791Z,19.60
2022-11-29T07:56:32.457Z,17.55
2022-11-29T07:57:36.445Z,14.07
2022-11-29T07:58:39.199Z,17.23
2022-11-29T07:59:42.121Z,16.88
2022-11-29T08:00:44.815Z,15.02
2022-11-29T08:01:48.111Z,15.63
2022-11-29T08:02:50.952Z,12.68
2022-11-29T08:03:54.928Z,17.73
2022-11-29T08:04:56.812Z,12.75
2022-11-29T08:05:59.504Z,13.70
2022-11-29T08:07:03.229Z,12.18
2022-11-29T08:08:06.667Z,16.95
2022-11-29T08:09:09.314Z,14.07
2022-11-29T08:10:13.976Z,16.02
2022-11-29T08:11:16.913Z,14.85
2022-11-29T08:12:18.635Z,13.85
2022-11-29T08:13:21.738Z,16.90
2022-11-29T08:14:24.453Z,14.43
2022-11-29T08:15:26.158Z,15.55
2022-11-29T08:16:29.183Z,14.35
2022-11-29T08:17:31.858Z,13.00
2022-11-29T08:18:34.562Z,12.98
2022-11-29T08:19:37.639Z,11.52
2022-11-29T08:20:41.714Z,14.07
2022-11-29T08:21:46.840Z,11.80
2022-11-29T08:22:55.270Z,13.48
2022-11-29T08:23:57.951Z,14.20
2022-11-29T08:25:00.071Z,12.20
2022-11-29T08:26:03.264Z,12.15
2022-11-29T08:27:04.932Z,13.45
2022-11-29T08:28:07.807Z,16.85
2022-11-29T08:29:09.545Z,13.60
2022-11-29T08:30:12.667Z,12.30
2022-11-29T08:31:14.419Z,15.50
2022-11-29T08:32:17.174Z,13.02
2022-11-29T08:33:18.889Z,15.48
2022-11-29T08:34:22.249Z,11.65
2022-11-29T08:35:26.475Z,16.48
2022-11-29T08:36:29.248Z,16.25
2022-11-29T08:37:30.963Z,14.48
2022-11-29T08:38:33.853Z,12.57
2022-11-29T08:39:35.575Z,13.10
2022-11-29T08:40:38.288Z,13.63
2022-11-29T08:41:40.970Z,16.77
2022-11-29T08:42:42.726Z,16.35
2022-11-29T08:43:45.720Z,38.13
2022-11-29T08:44:48.506Z,25.35
2022-11-29T08:45:52.103Z,17.10
2022-11-29T08:47:12.561Z,12.15
2022-11-29T08:48:15.449Z,13.32
2022-11-29T08:49:17.331Z,14.00
2022-11-29T08:50:20.045Z,13.07
2022-11-29T08:51:24.056Z,13.40
2022-11-29T08:52:58.729Z,13.93
2022-11-29T08:54:01.223Z,15.30
2022-11-29T08:55:03.937Z,17.98
2022-11-29T08:56:31.909Z,13.85
2022-11-29T08:57:39.955Z,15.40
2022-11-29T08:58:43.440Z,12.25
2022-11-29T08:59:45.073Z,13.73
2022-11-29T09:00:47.979Z,13.10
2022-11-29T09:01:49.847Z,13.05
2022-11-29T09:02:52.704Z,12.35
2022-11-29T09:04:00.474Z,11.60
2022-11-29T09:05:03.164Z,10.60
2022-11-29T09:06:10.470Z,13.13
2022-11-29T09:07:16.647Z,12.65
2022-11-29T09:08:19.516Z,13.82
2022-11-29T09:09:22.172Z,10.85
2022-11-29T09:10:23.997Z,13.82
2022-11-29T09:11:27.935Z,15.55
2022-11-29T09:12:29.670Z,13.52
2022-11-29T09:13:32.331Z,11.73
2022-11-29T09:14:35.124Z,14.15
2022-11-29T09:15:38.269Z,15.02
2022-11-29T09:16:40.935Z,17.88
2022-11-29T09:17:43.834Z,13.55
2022-11-29T09:18:51.275Z,12.02
2022-11-29T09:19:54.640Z,13.63
2022-11-29T09:20:56.605Z,13.65
2022-11-29T09:21:59.604Z,13.88
2022-11-29T09:23:02.996Z,14.93
2022-11-29T09:24:07.982Z,13.10
2022-11-29T09:25:10.259Z,14.25
2022-11-29T09:26:17.625Z,14.45
2022-11-29T09:27:20.426Z,14.20
2022-11-29T09:28:22.332Z,14.88
2022-11-29T09:29:24.990Z,19.85
2022-11-29T09:30:29.846Z,15.57
2022-11-29T09:31:33.453Z,14.63
2022-11-29T09:32:36.375Z,12.85
2022-11-29T09:33:39.509Z,14.48
2022-11-29T09:34:42.907Z,16.42
2022-11-29T09:35:45.005Z,13.45
2022-11-29T09:36:48.741Z,15.63
2022-11-29T09:37:50.418Z,12.52
2022-11-29T09:38:54.476Z,14.88
2022-11-29T09:39:57.149Z,12.93
2022-11-29T09:41:03.814Z,14.13
2022-11-29T09:42:20.064Z,14.68
2022-11-29T09:43:28.315Z,15.63
2022-11-29T09:44:39.831Z,16.02
2022-11-29T09:45:43.685Z,15.88
2022-11-29T09:46:58.396Z,14.75
2022-11-29T09:48:21.033Z,13.85
2022-11-29T09:49:48.288Z,16.40
2022-11-29T09:50:55.277Z,14.93
2022-11-29T09:52:04.025Z,17.10
2022-11-29T09:53:23.899Z,17.23
2022-11-29T09:54:36.311Z,19.20
2022-11-29T09:55:53.331Z,19.05
2022-11-29T09:56:57.227Z,18.70
2022-11-29T09:58:01.313Z,14.20
2022-11-29T09:59:06.249Z,17.95
2022-11-29T10:00:16.849Z,17.80
2022-11-29T10:01:23.008Z,16.85
2022-11-29T10:02:31.993Z,18.58
2022-11-29T10:03:36.221Z,15.52
2022-11-29T10:04:42.607Z,15.40
2022-11-29T10:05:47.557Z,16.23
2022-11-29T10:06:56.489Z,16.55
2022-11-29T10:08:04.626Z,14.40
2022-11-29T10:09:09.526Z,16.42
2022-11-29T10:10:18.488Z,15.13
2022-11-29T10:11:24.066Z,12.40
2022-11-29T10:12:34.931Z,14.73
2022-11-29T10:13:36.734Z,18.25
2022-11-29T10:14:45.227Z,14.75
2022-11-29T10:15:50.797Z,17.35
2022-11-29T10:16:56.545Z,14.50
2022-11-29T10:18:02.482Z,16.77
2022-11-29T10:19:08.526Z,14.82
2022-11-29T10:20:15.499Z,13.65
2022-11-29T10:21:21.474Z,13.45
2022-11-29T10:22:28.556Z,13.95
2022-11-29T10:23:33.940Z,15.65
2022-11-29T10:24:39.336Z,12.55
2022-11-29T10:25:47.961Z,16.70
2022-11-29T10:26:50.599Z,13.90
2022-11-29T10:27:53.836Z,16.92
2022-11-29T10:28:58.001Z,14.50
2022-11-29T10:30:02.483Z,14.60
2022-11-29T10:31:17.162Z,11.73
2022-11-29T10:32:21.565Z,13.35
2022-11-29T10:33:27.045Z,15.52
2022-11-29T10:34:32.287Z,14.75
2022-11-29T10:35:34.934Z,16.67
2022-11-29T10:36:41.469Z,19.58
2022-11-29T10:38:01.421Z,15.73
2022-11-29T10:39:13.061Z,13.93
2022-11-29T10:40:19.103Z,14.98
2022-11-29T10:41:23.975Z,14.30
2022-11-29T10:42:45.887Z,17.33
2022-11-29T10:43:48.906Z,14.18
2022-11-29T10:44:50.692Z,14.98
2022-11-29T10:45:56.179Z,14.70
2022-11-29T10:47:01.089Z,14.05
2022-11-29T10:48:04.434Z,13.48
2022-11-29T10:49:13.223Z,15.02
2022-11-29T10:50:19.298Z,13.13
2022-11-29T10:51:21.959Z,15.82
2022-11-29T10:52:24.886Z,15.25
2022-11-29T10:53:30.593Z,13.73
2022-11-29T10:54:39.902Z,14.73
2022-11-29T10:55:44.294Z,14.23
2022-11-29T10:56:51.051Z,15.00
2022-11-29T10:58:11.914Z,13.38
2022-11-29T10:59:22.007Z,12.20
2022-11-29T11:00:24.923Z,13.63
2022-11-29T11:01:29.094Z,12.75
2022-11-29T11:02:32.267Z,14.77
2022-11-29T11:03:37.415Z,14.23
2022-11-29T11:04:46.644Z,12.98
2022-11-29T11:06:05.302Z,18.58
2022-11-29T11:07:07.972Z,14.32
2022-11-29T11:08:17.186Z,16.90
2022-11-29T11:09:21.482Z,12.25
2022-11-29T11:10:27.442Z,12.98
2022-11-29T11:11:32.091Z,11.77
2022-11-29T11:12:36.908Z,13.13
2022-11-29T11:13:40.824Z,14.27
2022-11-29T11:14:44.872Z,14.45
2022-11-29T11:15:46.867Z,13.88
2022-11-29T11:16:49.579Z,13.15
2022-11-29T11:18:00.409Z,11.48
2022-11-29T11:19:25.627Z,14.70
2022-11-29T11:20:29.592Z,13.45
2022-11-29T11:21:32.405Z,13.98
2022-11-29T11:22:36.134Z,17.42
2022-11-29T11:23:45.090Z,13.43
2022-11-29T11:24:47.999Z,13.45
2022-11-29T11:25:56.769Z,14.23
2022-11-29T11:26:59.870Z,16.40
2022-11-29T11:28:15.427Z,15.43
2022-11-29T11:29:20.234Z,15.75
2022-11-29T11:30:23.587Z,14.90
2022-11-29T11:31:28.723Z,14.63
2022-11-29T11:32:31.651Z,15.93
2022-11-29T11:33:35.218Z,15.05
2022-11-29T11:34:38.958Z,15.13
2022-11-29T11:35:41.075Z,13.32
2022-11-29T11:36:43.730Z,12.32
2022-11-29T11:37:57.188Z,13.13
2022-11-29T11:39:12.920Z,14.48
2022-11-29T11:40:25.892Z,15.43
2022-11-29T11:41:44.686Z,17.30
2022-11-29T11:42:47.723Z,20.50
2022-11-29T11:43:57.083Z,13.65
2022-11-29T11:45:00.459Z,17.48
2022-11-29T11:46:03.535Z,13.10
2022-11-29T11:47:07.153Z,13.73
2022-11-29T11:48:14.399Z,14.43
2022-11-29T11:49:26.653Z,18.13
2022-11-29T11:50:32.194Z,14.40
2022-11-29T11:51:34.869Z,14.63
2022-11-29T11:52:46.130Z,15.52
2022-11-29T11:53:55.965Z,14.10
2022-11-29T11:55:00.434Z,13.05
2022-11-29T11:56:05.538Z,15.60
2022-11-29T11:57:16.422Z,13.50
2022-11-29T11:58:23.111Z,13.45
2022-11-29T11:59:28.172Z,14.70
2022-11-29T12:01:02.972Z,15.18
2022-11-29T12:02:02.715Z,15.90
2022-11-29T12:03:05.173Z,16.15
2022-11-29T12:04:11.657Z,14.38
2022-11-29T12:05:16.426Z,19.10
2022-11-29T12:06:45.125Z,13.23
2022-11-29T12:09:24.110Z,12.52
2022-11-29T12:10:30.074Z,14.95
2022-11-29T12:11:38.711Z,21.05
2022-11-29T12:12:43.081Z,14.32
2022-11-29T12:13:48.017Z,13.65
2022-11-29T12:14:56.888Z,17.88
2022-11-29T12:16:01.783Z,17.58
2022-11-29T12:17:14.288Z,17.73
2022-11-29T12:18:26.019Z,16.10
2022-11-29T12:19:33.146Z,13.77
2022-11-29T12:20:40.759Z,12.50
2022-11-29T12:21:46.066Z,13.25
2022-11-29T12:23:05.078Z,18.75
2022-11-29T12:24:17.747Z,12.75
2022-11-29T12:25:23.798Z,12.65
2022-11-29T12:26:55.767Z,15.45
2022-11-29T12:27:51.265Z,12.02
2022-11-29T12:28:53.963Z,17.73
2022-11-29T12:29:57.283Z,12.35
2022-11-29T12:31:05.906Z,14.50
2022-11-29T12:32:19.241Z,19.85
2022-11-29T12:33:28.105Z,15.32
2022-11-29T12:34:43.332Z,12.10
2022-11-29T12:35:56.181Z,16.75
2022-11-29T12:37:04.336Z,15.00
2022-11-29T12:38:12.259Z,13.52
2022-11-29T12:39:33.079Z,18.25
2022-11-29T12:40:41.534Z,12.27
2022-11-29T12:41:53.624Z,12.52
2022-11-29T12:43:03.992Z,15.23
2022-11-29T12:44:15.119Z,14.88
2022-11-29T12:45:31.338Z,14.38
2022-11-29T12:46:34.234Z,17.30
2022-11-29T12:47:51.720Z,19.63
2022-11-29T12:49:01.653Z,15.70
2022-11-29T12:50:11.827Z,17.10
2022-11-29T12:51:22.479Z,19.52
2022-11-29T12:52:31.765Z,20.55
2022-11-29T12:53:46.378Z,19.02
2022-11-29T12:54:56.188Z,23.20
2022-11-29T12:56:07.691Z,22.05
2022-11-29T12:57:15.962Z,23.73
2022-11-29T12:58:29.125Z,16.60
2022-11-29T12:59:45.437Z,17.77
2022-11-29T13:01:00.097Z,18.67
2022-11-29T13:02:16.767Z,19.52
2022-11-29T13:03:25.037Z,18.95
2022-11-29T13:04:36.279Z,17.85
2022-11-29T13:05:51.513Z,18.13
2022-11-29T13:06:59.885Z,20.55
2022-11-29T13:08:11.354Z,16.00
2022-11-29T13:09:29.386Z,17.38
2022-11-29T13:10:38.287Z,16.42
2022-11-29T13:11:42.768Z,13.48
2022-11-29T13:12:47.995Z,17.95
2022-11-29T13:14:03.847Z,20.88
2022-11-29T13:15:20.005Z,22.55
2022-11-29T13:16:37.296Z,19.75
2022-11-29T13:17:43.798Z,19.38
2022-11-29T13:18:55.986Z,19.33
2022-11-29T13:20:00.937Z,17.90
2022-11-29T13:21:08.805Z,19.27
2022-11-29T13:22:17.692Z,16.38
2022-11-29T13:23:39.168Z,16.42
2022-11-29T13:24:50.692Z,16.55
2022-11-29T13:25:54.551Z,18.10
2022-11-29T13:26:57.713Z,19.48
2022-11-29T13:28:04.722Z,22.77
2022-11-29T13:29:08.437Z,23.48
2022-11-29T13:30:15.683Z,17.75
2022-11-29T13:31:21.664Z,22.95
2022-11-29T13:32:36.152Z,20.83
2022-11-29T13:33:45.822Z,23.02
2022-11-29T13:34:50.682Z,19.05
2022-11-29T13:35:58.759Z,20.85
2022-11-29T13:37:07.491Z,23.77
2022-11-29T13:38:15.020Z,20.45
2022-11-29T13:39:29.336Z,20.42
2022-11-29T13:40:37.695Z,21.50
2022-11-29T13:41:47.767Z,22.63
2022-11-29T13:42:57.605Z,20.48
2022-11-29T13:44:07.948Z,20.55
2022-11-29T13:45:17.791Z,25.70
2022-11-29T13:46:24.062Z,29.67
2022-11-29T13:47:27.246Z,20.83
2022-11-29T13:48:48.249Z,29.83
2022-11-29T13:49:58.988Z,21.73
2022-11-29T13:51:26.559Z,22.98
2022-11-29T13:52:39.162Z,22.35
2022-11-29T13:53:48.796Z,28.83
2022-11-29T13:55:05.519Z,24.35
2022-11-29T13:56:07.317Z,21.88
2022-11-29T13:57:10.752Z,23.02
2022-11-29T13:58:34.091Z,26.52
2022-11-29T13:59:42.815Z,23.42
2022-11-29T14:00:51.493Z,23.17
2022-11-29T14:01:54.764Z,24.45
2022-11-29T14:02:57.172Z,19.83
2022-11-29T14:04:06.062Z,23.17
2022-11-29T14:05:25.853Z,23.42
2022-11-29T14:06:33.644Z,24.23
2022-11-29T14:07:36.475Z,22.95
2022-11-29T14:09:16.665Z,25.60
2022-11-29T14:10:04.708Z,21.95
2022-11-29T14:11:16.731Z,24.90
2022-11-29T14:12:27.190Z,22.77
2022-11-29T14:13:33.203Z,21.02
2022-11-29T14:14:40.130Z,20.60
2022-11-29T14:15:43.332Z,24.02
2022-11-29T14:16:47.868Z,21.23
2022-11-29T14:17:53.948Z,24.33
2022-11-29T14:19:21.873Z,23.10
2022-11-29T14:20:55.480Z,19.83
2022-11-29T14:22:21.242Z,22.00
2022-11-29T14:23:35.486Z,21.73
2022-11-29T14:24:42.734Z,21.38
2022-11-29T14:26:20.582Z,25.02
2022-11-29T14:28:02.022Z,23.33
2022-11-29T14:29:42.286Z,22.35
2022-11-29T14:30:49.479Z,20.45
2022-11-29T14:31:56.189Z,18.67
2022-11-29T14:33:00.689Z,26.02
2022-11-29T14:34:09.127Z,24.35
2022-11-29T14:35:18.188Z,23.00
2022-11-29T14:36:38.381Z,23.02
2022-11-29T14:37:51.975Z,22.13
2022-11-29T14:39:01.438Z,19.95
2022-11-29T14:40:13.298Z,22.17
2022-11-29T14:41:20.947Z,20.75
2022-11-29T14:42:25.863Z,27.42
2022-11-29T14:43:31.197Z,19.23
2022-11-29T14:44:34.698Z,23.50
2022-11-29T14:45:37.580Z,22.33
2022-11-29T14:46:39.357Z,23.67
2022-11-29T14:47:49.438Z,23.77
2022-11-29T14:48:59.252Z,20.45
2022-11-29T14:50:07.496Z,19.10